N156RE YBSU-YMEN
Flight info
| Callsign | N156RE |
|---|---|
| Flight time | N/A |
| Altitude | 40000 |
| Route | MOOLO Q35 EKABO/N0448F430 Q35 PKS DCT AY DCT LUVAS DCT COLDS |
| Aircraft | FA50/M-SDFGHIM1RWXY/H |
Departure
| Time | 2026-05-05 03:35 |
|---|---|
| Airport | Sunshine Coast Airport (YBSU) |
Arrival
| Time | N/A |
|---|---|
| Airport | Melbourne Essendon Airport (YMEN) |
| Time | Latitude | Longitude | Altitude | Speed | Heading |
|---|---|---|---|---|---|
| 2026-05-05 03:21 | -26.60957 | 153.08821 | 15 ft | 0 kts | 60° |
| 2026-05-05 03:25 | -26.60953 | 153.08829 | 15 ft | 2 kts | 66° |
| 2026-05-05 03:26 | -26.60965 | 153.08863 | 16 ft | 6 kts | 131° |
| 2026-05-05 03:26 | -26.60983 | 153.08909 | 15 ft | 7 kts | 103° |
| 2026-05-05 03:26 | -26.60995 | 153.08962 | 16 ft | 7 kts | 105° |
| 2026-05-05 03:26 | -26.60976 | 153.09010 | 15 ft | 9 kts | 27° |
| 2026-05-05 03:27 | -26.60905 | 153.09030 | 15 ft | 11 kts | 13° |
| 2026-05-05 03:27 | -26.60829 | 153.09051 | 15 ft | 12 kts | 15° |
| 2026-05-05 03:27 | -26.60749 | 153.09073 | 15 ft | 12 kts | 13° |
| 2026-05-05 03:27 | -26.60666 | 153.09097 | 16 ft | 13 kts | 15° |
| 2026-05-05 03:28 | -26.60579 | 153.09121 | 15 ft | 13 kts | 14° |
| 2026-05-05 03:28 | -26.60499 | 153.09094 | 15 ft | 13 kts | 320° |
| 2026-05-05 03:28 | -26.60426 | 153.09028 | 15 ft | 14 kts | 324° |
| 2026-05-05 03:28 | -26.60348 | 153.08959 | 16 ft | 15 kts | 322° |
| 2026-05-05 03:29 | -26.60264 | 153.08888 | 16 ft | 17 kts | 323° |
| 2026-05-05 03:29 | -26.60166 | 153.08804 | 16 ft | 18 kts | 322° |
| 2026-05-05 03:29 | -26.60051 | 153.08705 | 15 ft | 22 kts | 323° |
| 2026-05-05 03:29 | -26.59930 | 153.08603 | 15 ft | 22 kts | 322° |
| 2026-05-05 03:30 | -26.59807 | 153.08499 | 15 ft | 22 kts | 323° |
| 2026-05-05 03:30 | -26.59683 | 153.08393 | 15 ft | 23 kts | 322° |
| 2026-05-05 03:30 | -26.59557 | 153.08287 | 14 ft | 23 kts | 323° |
| 2026-05-05 03:30 | -26.59451 | 153.08201 | 16 ft | 12 kts | 337° |
| 2026-05-05 03:31 | -26.59380 | 153.08239 | 14 ft | 12 kts | 52° |
| 2026-05-05 03:31 | -26.59312 | 153.08297 | 14 ft | 13 kts | 6° |
| 2026-05-05 03:31 | -26.59236 | 153.08246 | 14 ft | 13 kts | 323° |
| 2026-05-05 03:31 | -26.59140 | 153.08166 | 14 ft | 20 kts | 320° |
| 2026-05-05 03:32 | -26.59031 | 153.08071 | 17 ft | 19 kts | 323° |
| 2026-05-05 03:32 | -26.58922 | 153.07981 | 16 ft | 20 kts | 322° |
| 2026-05-05 03:32 | -26.58814 | 153.07888 | 19 ft | 19 kts | 323° |
| 2026-05-05 03:32 | -26.58706 | 153.07796 | 17 ft | 20 kts | 322° |
| 2026-05-05 03:33 | -26.58592 | 153.07698 | 15 ft | 21 kts | 323° |
| 2026-05-05 03:33 | -26.58476 | 153.07601 | 16 ft | 21 kts | 321° |
| 2026-05-05 03:33 | -26.58429 | 153.07496 | 14 ft | 15 kts | 293° |
| 2026-05-05 03:33 | -26.58365 | 153.07444 | 14 ft | 8 kts | 11° |
| 2026-05-05 03:34 | -26.58339 | 153.07490 | 15 ft | 8 kts | 107° |
| 2026-05-05 03:34 | -26.58386 | 153.07523 | 14 ft | 9 kts | 143° |
| 2026-05-05 03:34 | -26.58436 | 153.07566 | 17 ft | 11 kts | 143° |
| 2026-05-05 03:34 | -26.58538 | 153.07652 | 16 ft | 37 kts | 143° |
| 2026-05-05 03:35 | -26.58912 | 153.07971 | 18 ft | 97 kts | 142° |
| 2026-05-05 03:35 | -26.59568 | 153.08524 | 98 ft | 131 kts | 143° |
| 2026-05-05 03:35 | -26.60322 | 153.09127 | 568 ft | 134 kts | 142° |
| 2026-05-05 03:35 | -26.61131 | 153.09759 | 847 ft | 158 kts | 143° |
| 2026-05-05 03:36 | -26.62095 | 153.10532 | 1201 ft | 177 kts | 143° |
| 2026-05-05 03:36 | -26.63069 | 153.11423 | 1664 ft | 184 kts | 139° |
| 2026-05-05 03:36 | -26.64073 | 153.12361 | 2118 ft | 190 kts | 140° |
| 2026-05-05 03:36 | -26.65020 | 153.13415 | 2596 ft | 194 kts | 130° |
| 2026-05-05 03:37 | -26.65865 | 153.14578 | 3078 ft | 196 kts | 130° |
| 2026-05-05 03:37 | -26.66748 | 153.15753 | 3569 ft | 198 kts | 131° |
| 2026-05-05 03:37 | -26.67652 | 153.16919 | 4080 ft | 199 kts | 131° |
| 2026-05-05 03:37 | -26.68558 | 153.18090 | 4584 ft | 199 kts | 131° |
| 2026-05-05 03:38 | -26.69462 | 153.19264 | 5108 ft | 198 kts | 131° |
| 2026-05-05 03:38 | -26.70360 | 153.20429 | 5615 ft | 197 kts | 131° |
| 2026-05-05 03:38 | -26.71253 | 153.21587 | 6121 ft | 196 kts | 131° |
| 2026-05-05 03:38 | -26.72145 | 153.22744 | 6601 ft | 196 kts | 131° |
| 2026-05-05 03:39 | -26.73038 | 153.23908 | 6972 ft | 200 kts | 130° |
| 2026-05-05 03:39 | -26.73935 | 153.25142 | 7259 ft | 210 kts | 129° |
| 2026-05-05 03:39 | -26.74877 | 153.26304 | 7736 ft | 206 kts | 136° |
| 2026-05-05 03:39 | -26.75883 | 153.27389 | 8365 ft | 190 kts | 137° |
| 2026-05-05 03:40 | -26.76864 | 153.28413 | 8651 ft | 203 kts | 138° |
| 2026-05-05 03:40 | -26.77757 | 153.29679 | 8962 ft | 206 kts | 119° |
| 2026-05-05 03:40 | -26.78432 | 153.31085 | 9291 ft | 213 kts | 119° |
| 2026-05-05 03:40 | -26.79352 | 153.32286 | 9943 ft | 196 kts | 148° |
| 2026-05-05 03:41 | -26.80658 | 153.32785 | 10033 ft | 211 kts | 180° |
| 2026-05-05 03:41 | -26.82036 | 153.32533 | 10696 ft | 186 kts | 194° |
| 2026-05-05 03:41 | -26.83427 | 153.32704 | 10345 ft | 221 kts | 140° |
| 2026-05-05 03:41 | -26.84449 | 153.33534 | 11712 ft | 136 kts | 151° |
| 2026-05-05 03:42 | -26.85494 | 153.34124 | 11165 ft | 207 kts | 161° |
| 2026-05-05 03:42 | -26.86687 | 153.34613 | 11980 ft | 173 kts | 164° |
| 2026-05-05 03:42 | -26.88011 | 153.34993 | 11599 ft | 216 kts | 171° |
| 2026-05-05 03:42 | -26.89398 | 153.35324 | 12412 ft | 181 kts | 166° |
| 2026-05-05 03:43 | -26.90492 | 153.35954 | 12726 ft | 194 kts | 136° |
| 2026-05-05 03:43 | -26.91134 | 153.37522 | 11909 ft | 252 kts | 88° |
| 2026-05-05 03:43 | -26.90514 | 153.39165 | 12643 ft | 207 kts | 33° |
| 2026-05-05 03:43 | -26.89294 | 153.39677 | 13132 ft | 190 kts | 350° |
| 2026-05-05 03:44 | -26.88137 | 153.39002 | 13098 ft | 198 kts | 303° |
| 2026-05-05 03:44 | -26.87824 | 153.37493 | 13124 ft | 213 kts | 261° |
| 2026-05-05 03:44 | -26.88625 | 153.36048 | 13132 ft | 234 kts | 220° |
| 2026-05-05 03:44 | -26.90214 | 153.35478 | 13134 ft | 254 kts | 181° |
| 2026-05-05 03:45 | -26.91988 | 153.35872 | 13134 ft | 264 kts | 172° |
| 2026-05-05 03:45 | -26.93812 | 153.36058 | 13308 ft | 259 kts | 185° |
| 2026-05-05 03:45 | -26.95589 | 153.35916 | 13565 ft | 254 kts | 189° |
| 2026-05-05 03:45 | -26.97348 | 153.35793 | 13821 ft | 252 kts | 186° |
| 2026-05-05 03:46 | -26.99119 | 153.35757 | 13940 ft | 256 kts | 185° |
| 2026-05-05 03:46 | -27.00902 | 153.35723 | 14054 ft | 257 kts | 186° |
| 2026-05-05 03:46 | -27.02697 | 153.35667 | 14168 ft | 259 kts | 186° |
| 2026-05-05 03:46 | -27.04487 | 153.35610 | 14282 ft | 260 kts | 186° |
| 2026-05-05 03:47 | -27.06303 | 153.35557 | 14400 ft | 261 kts | 186° |
| 2026-05-05 03:47 | -27.08124 | 153.35504 | 14516 ft | 262 kts | 186° |
| 2026-05-05 03:47 | -27.09951 | 153.35450 | 14632 ft | 263 kts | 186° |
| 2026-05-05 03:47 | -27.11779 | 153.35396 | 14748 ft | 263 kts | 186° |
| 2026-05-05 03:48 | -27.13610 | 153.35341 | 14875 ft | 263 kts | 186° |
| 2026-05-05 03:48 | -27.15448 | 153.35287 | 14992 ft | 263 kts | 186° |
| 2026-05-05 03:48 | -27.17280 | 153.35233 | 15108 ft | 263 kts | 186° |
| 2026-05-05 03:48 | -27.19114 | 153.35177 | 15227 ft | 263 kts | 186° |
| 2026-05-05 03:49 | -27.20947 | 153.35123 | 15344 ft | 263 kts | 186° |
| 2026-05-05 03:49 | -27.22781 | 153.35068 | 15445 ft | 264 kts | 187° |
| 2026-05-05 03:49 | -27.24638 | 153.35012 | 15448 ft | 269 kts | 186° |
| 2026-05-05 03:49 | -27.26520 | 153.34955 | 15449 ft | 273 kts | 186° |
| 2026-05-05 03:50 | -27.28428 | 153.34899 | 15454 ft | 276 kts | 186° |
| 2026-05-05 03:50 | -27.30331 | 153.34843 | 15451 ft | 278 kts | 186° |
| 2026-05-05 03:50 | -27.32273 | 153.34784 | 15450 ft | 279 kts | 186° |
| 2026-05-05 03:50 | -27.34217 | 153.34727 | 15456 ft | 281 kts | 186° |
| 2026-05-05 03:51 | -27.36171 | 153.34634 | 15453 ft | 280 kts | 192° |
| 2026-05-05 03:51 | -27.37998 | 153.34025 | 15461 ft | 272 kts | 210° |
| 2026-05-05 03:51 | -27.39654 | 153.33019 | 15461 ft | 269 kts | 217° |
| 2026-05-05 03:51 | -27.39981 | 153.32788 | 15468 ft | 269 kts | 217° |